sensor_id;sensor_type;location;lat;lon;timestamp;P1;durP1;ratioP1;P2;durP2;ratioP2
20336;SDS011;10326;53.660;10.200;2023-04-03T00:00:42;4.77;;;2.90;;
20336;SDS011;10326;53.660;10.200;2023-04-03T00:03:09;5.97;;;2.87;;
20336;SDS011;10326;53.660;10.200;2023-04-03T00:05:36;5.57;;;3.00;;
20336;SDS011;10326;53.660;10.200;2023-04-03T00:08:03;5.40;;;2.90;;
20336;SDS011;10326;53.660;10.200;2023-04-03T00:10:33;4.77;;;2.73;;
20336;SDS011;10326;53.660;10.200;2023-04-03T00:13:01;4.87;;;2.97;;
20336;SDS011;10326;53.660;10.200;2023-04-03T00:15:30;4.63;;;3.10;;
20336;SDS011;10326;53.660;10.200;2023-04-03T00:17:57;5.90;;;3.07;;
20336;SDS011;10326;53.660;10.200;2023-04-03T00:20:25;3.73;;;2.83;;
20336;SDS011;10326;53.660;10.200;2023-04-03T00:22:52;3.97;;;2.53;;
20336;SDS011;10326;53.660;10.200;2023-04-03T00:25:20;4.13;;;2.70;;
20336;SDS011;10326;53.660;10.200;2023-04-03T00:27:47;4.77;;;2.60;;
20336;SDS011;10326;53.660;10.200;2023-04-03T00:30:16;5.77;;;3.37;;
20336;SDS011;10326;53.660;10.200;2023-04-03T00:32:48;6.23;;;3.07;;
20336;SDS011;10326;53.660;10.200;2023-04-03T00:35:16;4.57;;;2.67;;
20336;SDS011;10326;53.660;10.200;2023-04-03T00:37:45;3.23;;;2.50;;
20336;SDS011;10326;53.660;10.200;2023-04-03T00:40:14;8.20;;;3.40;;
20336;SDS011;10326;53.660;10.200;2023-04-03T00:42:42;7.27;;;2.90;;
20336;SDS011;10326;53.660;10.200;2023-04-03T00:45:24;4.50;;;2.73;;
20336;SDS011;10326;53.660;10.200;2023-04-03T00:47:58;4.67;;;2.80;;
20336;SDS011;10326;53.660;10.200;2023-04-03T00:50:28;4.13;;;2.73;;
20336;SDS011;10326;53.660;10.200;2023-04-03T00:52:56;3.53;;;2.60;;
20336;SDS011;10326;53.660;10.200;2023-04-03T00:55:24;4.27;;;2.90;;
20336;SDS011;10326;53.660;10.200;2023-04-03T00:57:52;4.73;;;3.17;;
20336;SDS011;10326;53.660;10.200;2023-04-03T01:00:22;5.50;;;3.33;;
20336;SDS011;10326;53.660;10.200;2023-04-03T01:02:51;3.50;;;2.63;;
20336;SDS011;10326;53.660;10.200;2023-04-03T01:05:20;4.27;;;2.87;;
20336;SDS011;10326;53.660;10.200;2023-04-03T01:07:48;4.47;;;2.53;;
20336;SDS011;10326;53.660;10.200;2023-04-03T01:10:18;4.30;;;2.90;;
20336;SDS011;10326;53.660;10.200;2023-04-03T01:12:47;3.97;;;2.90;;
20336;SDS011;10326;53.660;10.200;2023-04-03T01:15:18;5.67;;;3.20;;
20336;SDS011;10326;53.660;10.200;2023-04-03T01:17:48;5.40;;;3.10;;
20336;SDS011;10326;53.660;10.200;2023-04-03T01:20:45;5.33;;;2.83;;
20336;SDS011;10326;53.660;10.200;2023-04-03T01:23:58;5.17;;;2.50;;
20336;SDS011;10326;53.660;10.200;2023-04-03T01:26:41;3.70;;;2.63;;
20336;SDS011;10326;53.660;10.200;2023-04-03T01:29:08;4.13;;;2.80;;
20336;SDS011;10326;53.660;10.200;2023-04-03T01:34:23;3.00;;;2.70;;
20336;SDS011;10326;53.660;10.200;2023-04-03T01:36:52;4.43;;;2.90;;
20336;SDS011;10326;53.660;10.200;2023-04-03T01:39:20;3.63;;;2.60;;
20336;SDS011;10326;53.660;10.200;2023-04-03T01:41:49;3.40;;;3.10;;
20336;SDS011;10326;53.660;10.200;2023-04-03T01:44:23;4.27;;;2.97;;
20336;SDS011;10326;53.660;10.200;2023-04-03T01:46:50;7.10;;;3.00;;
20336;SDS011;10326;53.660;10.200;2023-04-03T01:49:20;5.23;;;2.87;;
20336;SDS011;10326;53.660;10.200;2023-04-03T01:51:48;3.40;;;2.70;;
20336;SDS011;10326;53.660;10.200;2023-04-03T01:54:15;5.60;;;3.07;;
20336;SDS011;10326;53.660;10.200;2023-04-03T01:56:43;6.10;;;2.83;;
20336;SDS011;10326;53.660;10.200;2023-04-03T01:59:10;5.07;;;2.90;;
20336;SDS011;10326;53.660;10.200;2023-04-03T02:01:37;3.87;;;2.57;;
20336;SDS011;10326;53.660;10.200;2023-04-03T02:04:05;4.90;;;2.73;;
20336;SDS011;10326;53.660;10.200;2023-04-03T02:06:33;3.87;;;2.70;;
20336;SDS011;10326;53.660;10.200;2023-04-03T02:09:00;4.03;;;2.70;;
20336;SDS011;10326;53.660;10.200;2023-04-03T02:11:29;4.93;;;3.00;;
20336;SDS011;10326;53.660;10.200;2023-04-03T02:13:56;3.77;;;2.93;;
20336;SDS011;10326;53.660;10.200;2023-04-03T02:16:24;6.27;;;3.10;;
20336;SDS011;10326;53.660;10.200;2023-04-03T02:18:51;5.13;;;2.97;;
20336;SDS011;10326;53.660;10.200;2023-04-03T02:21:18;3.93;;;2.87;;
20336;SDS011;10326;53.660;10.200;2023-04-03T02:23:48;6.77;;;3.20;;
20336;SDS011;10326;53.660;10.200;2023-04-03T02:26:16;4.23;;;2.90;;
20336;SDS011;10326;53.660;10.200;2023-04-03T02:28:44;5.20;;;2.83;;
20336;SDS011;10326;53.660;10.200;2023-04-03T02:31:12;5.13;;;3.10;;
20336;SDS011;10326;53.660;10.200;2023-04-03T02:33:40;3.77;;;2.90;;
20336;SDS011;10326;53.660;10.200;2023-04-03T02:36:10;5.00;;;2.80;;
20336;SDS011;10326;53.660;10.200;2023-04-03T02:38:40;6.33;;;3.27;;
20336;SDS011;10326;53.660;10.200;2023-04-03T02:41:10;5.33;;;2.97;;
20336;SDS011;10326;53.660;10.200;2023-04-03T02:43:39;4.10;;;3.00;;
20336;SDS011;10326;53.660;10.200;2023-04-03T02:46:06;3.60;;;2.47;;
20336;SDS011;10326;53.660;10.200;2023-04-03T02:48:34;5.80;;;3.07;;
20336;SDS011;10326;53.660;10.200;2023-04-03T02:51:03;4.83;;;2.97;;
20336;SDS011;10326;53.660;10.200;2023-04-03T02:53:31;4.93;;;2.97;;
20336;SDS011;10326;53.660;10.200;2023-04-03T02:56:03;4.97;;;3.03;;
20336;SDS011;10326;53.660;10.200;2023-04-03T02:58:32;6.43;;;3.00;;
20336;SDS011;10326;53.660;10.200;2023-04-03T03:01:03;4.43;;;3.00;;
20336;SDS011;10326;53.660;10.200;2023-04-03T03:03:30;4.40;;;3.37;;
20336;SDS011;10326;53.660;10.200;2023-04-03T03:06:01;3.43;;;2.63;;
20336;SDS011;10326;53.660;10.200;2023-04-03T03:08:29;7.40;;;3.17;;
20336;SDS011;10326;53.660;10.200;2023-04-03T03:10:56;5.43;;;3.40;;
20336;SDS011;10326;53.660;10.200;2023-04-03T03:13:24;5.30;;;3.20;;
20336;SDS011;10326;53.660;10.200;2023-04-03T03:15:53;5.87;;;3.20;;
20336;SDS011;10326;53.660;10.200;2023-04-03T03:18:20;5.30;;;3.00;;
20336;SDS011;10326;53.660;10.200;2023-04-03T03:20:50;3.50;;;2.80;;
20336;SDS011;10326;53.660;10.200;2023-04-03T03:23:18;4.80;;;3.10;;
20336;SDS011;10326;53.660;10.200;2023-04-03T03:25:47;6.90;;;3.30;;
20336;SDS011;10326;53.660;10.200;2023-04-03T03:28:14;4.27;;;3.23;;
20336;SDS011;10326;53.660;10.200;2023-04-03T03:30:42;6.57;;;2.77;;
20336;SDS011;10326;53.660;10.200;2023-04-03T03:33:10;4.70;;;3.13;;
20336;SDS011;10326;53.660;10.200;2023-04-03T03:35:37;7.50;;;3.13;;
20336;SDS011;10326;53.660;10.200;2023-04-03T03:38:05;4.77;;;3.30;;
20336;SDS011;10326;53.660;10.200;2023-04-03T03:40:32;5.50;;;3.03;;
20336;SDS011;10326;53.660;10.200;2023-04-03T03:42:59;6.00;;;3.00;;
20336;SDS011;10326;53.660;10.200;2023-04-03T03:45:26;7.77;;;3.10;;
20336;SDS011;10326;53.660;10.200;2023-04-03T03:47:54;7.13;;;3.10;;
20336;SDS011;10326;53.660;10.200;2023-04-03T03:50:23;4.90;;;3.13;;
20336;SDS011;10326;53.660;10.200;2023-04-03T03:52:51;5.43;;;3.37;;
20336;SDS011;10326;53.660;10.200;2023-04-03T03:55:18;3.90;;;2.90;;
20336;SDS011;10326;53.660;10.200;2023-04-03T03:57:50;5.57;;;2.87;;
20336;SDS011;10326;53.660;10.200;2023-04-03T04:00:18;5.40;;;3.13;;
20336;SDS011;10326;53.660;10.200;2023-04-03T04:02:51;5.10;;;3.13;;
20336;SDS011;10326;53.660;10.200;2023-04-03T04:05:20;6.13;;;3.10;;
20336;SDS011;10326;53.660;10.200;2023-04-03T04:07:49;5.73;;;2.90;;
20336;SDS011;10326;53.660;10.200;2023-04-03T04:10:17;4.77;;;2.80;;
20336;SDS011;10326;53.660;10.200;2023-04-03T04:12:45;8.40;;;3.07;;
20336;SDS011;10326;53.660;10.200;2023-04-03T04:15:14;6.93;;;3.30;;
20336;SDS011;10326;53.660;10.200;2023-04-03T04:17:42;5.63;;;2.87;;
20336;SDS011;10326;53.660;10.200;2023-04-03T04:20:11;5.03;;;3.20;;
20336;SDS011;10326;53.660;10.200;2023-04-03T04:22:39;4.03;;;3.00;;
20336;SDS011;10326;53.660;10.200;2023-04-03T04:25:08;4.57;;;3.27;;
20336;SDS011;10326;53.660;10.200;2023-04-03T04:27:37;6.43;;;3.37;;
20336;SDS011;10326;53.660;10.200;2023-04-03T04:30:05;5.07;;;3.07;;
20336;SDS011;10326;53.660;10.200;2023-04-03T04:32:34;5.77;;;3.20;;
20336;SDS011;10326;53.660;10.200;2023-04-03T04:35:02;6.67;;;2.93;;
20336;SDS011;10326;53.660;10.200;2023-04-03T04:37:32;5.93;;;3.37;;
20336;SDS011;10326;53.660;10.200;2023-04-03T04:40:00;2.90;;;2.57;;
20336;SDS011;10326;53.660;10.200;2023-04-03T04:42:30;6.83;;;3.00;;
20336;SDS011;10326;53.660;10.200;2023-04-03T04:44:57;5.73;;;3.07;;
20336;SDS011;10326;53.660;10.200;2023-04-03T04:47:24;4.37;;;3.17;;
20336;SDS011;10326;53.660;10.200;2023-04-03T04:49:52;5.07;;;2.83;;
20336;SDS011;10326;53.660;10.200;2023-04-03T04:52:20;6.37;;;3.00;;
20336;SDS011;10326;53.660;10.200;2023-04-03T04:54:47;5.90;;;3.20;;
20336;SDS011;10326;53.660;10.200;2023-04-03T04:57:14;5.63;;;2.90;;
20336;SDS011;10326;53.660;10.200;2023-04-03T04:59:46;6.33;;;2.70;;
20336;SDS011;10326;53.660;10.200;2023-04-03T05:02:13;4.63;;;2.83;;
20336;SDS011;10326;53.660;10.200;2023-04-03T05:04:43;8.70;;;3.13;;
20336;SDS011;10326;53.660;10.200;2023-04-03T05:07:16;5.07;;;2.80;;
20336;SDS011;10326;53.660;10.200;2023-04-03T05:09:44;4.87;;;2.70;;
20336;SDS011;10326;53.660;10.200;2023-04-03T05:12:12;4.13;;;2.50;;
20336;SDS011;10326;53.660;10.200;2023-04-03T05:14:48;5.80;;;2.83;;
20336;SDS011;10326;53.660;10.200;2023-04-03T05:17:15;3.60;;;2.70;;
20336;SDS011;10326;53.660;10.200;2023-04-03T05:19:48;5.67;;;2.87;;
20336;SDS011;10326;53.660;10.200;2023-04-03T05:22:17;4.60;;;2.50;;
20336;SDS011;10326;53.660;10.200;2023-04-03T05:24:44;7.10;;;2.50;;
20336;SDS011;10326;53.660;10.200;2023-04-03T05:27:11;4.80;;;3.07;;
20336;SDS011;10326;53.660;10.200;2023-04-03T05:29:42;5.87;;;3.43;;
20336;SDS011;10326;53.660;10.200;2023-04-03T05:32:14;5.73;;;3.30;;
20336;SDS011;10326;53.660;10.200;2023-04-03T05:34:43;5.20;;;3.33;;
20336;SDS011;10326;53.660;10.200;2023-04-03T05:37:11;5.90;;;3.10;;
20336;SDS011;10326;53.660;10.200;2023-04-03T05:39:40;5.17;;;2.80;;
20336;SDS011;10326;53.660;10.200;2023-04-03T05:42:09;5.77;;;2.80;;
20336;SDS011;10326;53.660;10.200;2023-04-03T05:44:37;5.00;;;2.80;;
20336;SDS011;10326;53.660;10.200;2023-04-03T05:47:04;5.33;;;2.90;;
20336;SDS011;10326;53.660;10.200;2023-04-03T05:49:33;4.67;;;2.60;;
20336;SDS011;10326;53.660;10.200;2023-04-03T05:52:01;7.23;;;2.60;;
20336;SDS011;10326;53.660;10.200;2023-04-03T05:54:30;5.77;;;2.90;;
20336;SDS011;10326;53.660;10.200;2023-04-03T05:57:18;7.43;;;2.83;;
20336;SDS011;10326;53.660;10.200;2023-04-03T05:59:46;4.63;;;2.80;;
20336;SDS011;10326;53.660;10.200;2023-04-03T06:02:16;4.70;;;2.70;;
20336;SDS011;10326;53.660;10.200;2023-04-03T06:04:49;7.50;;;3.27;;
20336;SDS011;10326;53.660;10.200;2023-04-03T06:07:18;5.10;;;3.20;;
20336;SDS011;10326;53.660;10.200;2023-04-03T06:09:50;4.87;;;2.50;;
20336;SDS011;10326;53.660;10.200;2023-04-03T06:12:19;6.70;;;2.97;;
20336;SDS011;10326;53.660;10.200;2023-04-03T06:14:46;5.93;;;3.23;;
20336;SDS011;10326;53.660;10.200;2023-04-03T06:17:14;5.80;;;3.37;;
20336;SDS011;10326;53.660;10.200;2023-04-03T06:19:43;5.50;;;3.00;;
20336;SDS011;10326;53.660;10.200;2023-04-03T06:24:46;7.47;;;3.67;;
20336;SDS011;10326;53.660;10.200;2023-04-03T06:27:13;9.17;;;3.53;;
20336;SDS011;10326;53.660;10.200;2023-04-03T06:29:40;5.97;;;3.40;;
20336;SDS011;10326;53.660;10.200;2023-04-03T06:32:10;7.00;;;3.40;;
20336;SDS011;10326;53.660;10.200;2023-04-03T06:34:37;8.30;;;3.67;;
20336;SDS011;10326;53.660;10.200;2023-04-03T06:37:04;7.53;;;4.00;;
20336;SDS011;10326;53.660;10.200;2023-04-03T06:39:32;7.70;;;4.23;;
20336;SDS011;10326;53.660;10.200;2023-04-03T06:44:37;5.23;;;3.80;;
20336;SDS011;10326;53.660;10.200;2023-04-03T06:47:04;5.87;;;3.57;;
20336;SDS011;10326;53.660;10.200;2023-04-03T06:51:59;6.00;;;3.07;;
20336;SDS011;10326;53.660;10.200;2023-04-03T06:54:27;7.23;;;3.37;;
20336;SDS011;10326;53.660;10.200;2023-04-03T06:59:23;4.57;;;3.00;;
20336;SDS011;10326;53.660;10.200;2023-04-03T07:04:21;5.50;;;3.00;;
20336;SDS011;10326;53.660;10.200;2023-04-03T07:06:48;6.27;;;2.87;;
20336;SDS011;10326;53.660;10.200;2023-04-03T07:11:45;3.80;;;2.47;;
20336;SDS011;10326;53.660;10.200;2023-04-03T07:14:12;4.17;;;2.60;;
20336;SDS011;10326;53.660;10.200;2023-04-03T07:16:39;6.67;;;2.83;;
20336;SDS011;10326;53.660;10.200;2023-04-03T07:19:06;5.33;;;2.53;;
20336;SDS011;10326;53.660;10.200;2023-04-03T07:21:36;5.60;;;2.90;;
20336;SDS011;10326;53.660;10.200;2023-04-03T07:24:03;5.00;;;2.60;;
20336;SDS011;10326;53.660;10.200;2023-04-03T07:26:31;3.60;;;2.60;;
20336;SDS011;10326;53.660;10.200;2023-04-03T07:28:58;3.60;;;2.30;;
20336;SDS011;10326;53.660;10.200;2023-04-03T07:31:25;4.33;;;2.40;;
20336;SDS011;10326;53.660;10.200;2023-04-03T07:33:54;6.40;;;2.47;;
20336;SDS011;10326;53.660;10.200;2023-04-03T07:36:21;3.67;;;2.20;;
20336;SDS011;10326;53.660;10.200;2023-04-03T07:38:51;5.50;;;2.47;;
20336;SDS011;10326;53.660;10.200;2023-04-03T07:41:19;3.95;;;2.55;;
20336;SDS011;10326;53.660;10.200;2023-04-03T07:43:48;4.28;;;2.15;;
20336;SDS011;10326;53.660;10.200;2023-04-03T07:46:16;3.78;;;2.67;;
20336;SDS011;10326;53.660;10.200;2023-04-03T07:48:43;3.67;;;2.60;;
20336;SDS011;10326;53.660;10.200;2023-04-03T07:51:11;3.97;;;2.03;;
20336;SDS011;10326;53.660;10.200;2023-04-03T07:53:40;2.57;;;1.90;;
20336;SDS011;10326;53.660;10.200;2023-04-03T07:56:08;5.13;;;2.17;;
20336;SDS011;10326;53.660;10.200;2023-04-03T07:58:36;3.63;;;2.05;;
20336;SDS011;10326;53.660;10.200;2023-04-03T08:01:03;4.35;;;1.80;;
20336;SDS011;10326;53.660;10.200;2023-04-03T08:03:31;2.65;;;1.83;;
20336;SDS011;10326;53.660;10.200;2023-04-03T08:06:01;3.22;;;1.70;;
20336;SDS011;10326;53.660;10.200;2023-04-03T08:08:30;3.65;;;1.80;;
20336;SDS011;10326;53.660;10.200;2023-04-03T08:10:58;3.42;;;2.05;;
20336;SDS011;10326;53.660;10.200;2023-04-03T08:13:29;5.18;;;1.83;;
20336;SDS011;10326;53.660;10.200;2023-04-03T08:15:56;3.42;;;1.83;;
20336;SDS011;10326;53.660;10.200;2023-04-03T08:18:24;3.58;;;1.80;;
20336;SDS011;10326;53.660;10.200;2023-04-03T08:20:52;3.75;;;1.92;;
20336;SDS011;10326;53.660;10.200;2023-04-03T08:23:19;5.30;;;1.77;;
20336;SDS011;10326;53.660;10.200;2023-04-03T08:25:46;2.80;;;1.60;;
20336;SDS011;10326;53.660;10.200;2023-04-03T08:28:13;3.35;;;1.70;;
20336;SDS011;10326;53.660;10.200;2023-04-03T08:30:42;6.53;;;1.60;;
20336;SDS011;10326;53.660;10.200;2023-04-03T08:33:09;4.10;;;1.65;;
20336;SDS011;10326;53.660;10.200;2023-04-03T08:35:40;2.08;;;1.35;;
20336;SDS011;10326;53.660;10.200;2023-04-03T08:38:08;2.25;;;1.50;;
20336;SDS011;10326;53.660;10.200;2023-04-03T08:40:36;5.00;;;1.50;;
20336;SDS011;10326;53.660;10.200;2023-04-03T08:43:06;3.53;;;1.60;;
20336;SDS011;10326;53.660;10.200;2023-04-03T08:45:56;2.28;;;1.45;;
20336;SDS011;10326;53.660;10.200;2023-04-03T08:48:27;2.28;;;1.80;;
20336;SDS011;10326;53.660;10.200;2023-04-03T08:51:00;3.92;;;1.48;;
20336;SDS011;10326;53.660;10.200;2023-04-03T08:53:37;2.08;;;1.25;;
20336;SDS011;10326;53.660;10.200;2023-04-03T08:56:09;2.17;;;1.17;;
20336;SDS011;10326;53.660;10.200;2023-04-03T08:58:41;2.38;;;1.27;;
20336;SDS011;10326;53.660;10.200;2023-04-03T09:01:17;3.10;;;1.50;;
20336;SDS011;10326;53.660;10.200;2023-04-03T09:03:48;3.40;;;1.30;;
20336;SDS011;10326;53.660;10.200;2023-04-03T09:06:17;1.98;;;1.30;;
20336;SDS011;10326;53.660;10.200;2023-04-03T09:08:49;3.90;;;1.25;;
20336;SDS011;10326;53.660;10.200;2023-04-03T09:11:27;2.42;;;1.38;;
20336;SDS011;10326;53.660;10.200;2023-04-03T09:14:13;3.00;;;1.52;;
20336;SDS011;10326;53.660;10.200;2023-04-03T09:16:52;2.25;;;1.00;;
20336;SDS011;10326;53.660;10.200;2023-04-03T09:19:25;2.47;;;1.15;;
20336;SDS011;10326;53.660;10.200;2023-04-03T09:22:03;2.22;;;1.38;;
20336;SDS011;10326;53.660;10.200;2023-04-03T09:24:43;2.30;;;1.17;;
20336;SDS011;10326;53.660;10.200;2023-04-03T09:27:13;1.83;;;1.33;;
20336;SDS011;10326;53.660;10.200;2023-04-03T09:29:41;4.38;;;1.20;;
20336;SDS011;10326;53.660;10.200;2023-04-03T09:32:26;1.92;;;1.08;;
20336;SDS011;10326;53.660;10.200;2023-04-03T09:34:56;2.97;;;1.52;;
20336;SDS011;10326;53.660;10.200;2023-04-03T09:37:39;2.15;;;0.90;;
20336;SDS011;10326;53.660;10.200;2023-04-03T09:42:59;2.88;;;1.48;;
20336;SDS011;10326;53.660;10.200;2023-04-03T09:45:28;1.35;;;1.10;;
20336;SDS011;10326;53.660;10.200;2023-04-03T09:48:06;2.72;;;1.13;;
20336;SDS011;10326;53.660;10.200;2023-04-03T09:50:53;2.42;;;1.23;;
20336;SDS011;10326;53.660;10.200;2023-04-03T09:53:30;2.53;;;1.13;;
20336;SDS011;10326;53.660;10.200;2023-04-03T09:56:02;2.92;;;1.33;;
20336;SDS011;10326;53.660;10.200;2023-04-03T09:58:37;2.17;;;1.00;;
20336;SDS011;10326;53.660;10.200;2023-04-03T10:01:20;2.25;;;1.02;;
20336;SDS011;10326;53.660;10.200;2023-04-03T10:04:08;3.30;;;1.20;;
20336;SDS011;10326;53.660;10.200;2023-04-03T10:06:39;1.98;;;1.10;;
20336;SDS011;10326;53.660;10.200;2023-04-03T10:09:22;3.78;;;1.58;;
20336;SDS011;10326;53.660;10.200;2023-04-03T10:11:57;2.53;;;1.00;;
20336;SDS011;10326;53.660;10.200;2023-04-03T10:14:29;2.17;;;1.08;;
20336;SDS011;10326;53.660;10.200;2023-04-03T10:16:59;3.80;;;1.33;;
20336;SDS011;10326;53.660;10.200;2023-04-03T10:19:41;2.97;;;1.20;;
20336;SDS011;10326;53.660;10.200;2023-04-03T10:22:18;2.15;;;1.30;;
20336;SDS011;10326;53.660;10.200;2023-04-03T10:24:52;2.30;;;1.35;;
20336;SDS011;10326;53.660;10.200;2023-04-03T10:27:34;2.17;;;1.10;;
20336;SDS011;10326;53.660;10.200;2023-04-03T10:30:17;1.73;;;1.17;;
20336;SDS011;10326;53.660;10.200;2023-04-03T10:33:08;2.40;;;1.20;;
20336;SDS011;10326;53.660;10.200;2023-04-03T10:35:53;2.42;;;1.30;;
20336;SDS011;10326;53.660;10.200;2023-04-03T10:38:37;2.38;;;1.33;;
20336;SDS011;10326;53.660;10.200;2023-04-03T10:41:15;3.67;;;1.48;;
20336;SDS011;10326;53.660;10.200;2023-04-03T10:43:50;2.50;;;1.17;;
20336;SDS011;10326;53.660;10.200;2023-04-03T10:46:27;2.90;;;1.25;;
20336;SDS011;10326;53.660;10.200;2023-04-03T10:49:03;2.72;;;1.20;;
20336;SDS011;10326;53.660;10.200;2023-04-03T10:51:43;2.35;;;1.30;;
20336;SDS011;10326;53.660;10.200;2023-04-03T10:54:16;2.05;;;1.42;;
20336;SDS011;10326;53.660;10.200;2023-04-03T10:56:51;2.75;;;1.23;;
20336;SDS011;10326;53.660;10.200;2023-04-03T10:59:23;2.58;;;1.30;;
20336;SDS011;10326;53.660;10.200;2023-04-03T11:01:57;1.23;;;1.02;;
20336;SDS011;10326;53.660;10.200;2023-04-03T11:04:31;2.70;;;1.23;;
20336;SDS011;10326;53.660;10.200;2023-04-03T11:07:06;1.83;;;1.20;;
20336;SDS011;10326;53.660;10.200;2023-04-03T11:09:39;2.72;;;1.48;;
20336;SDS011;10326;53.660;10.200;2023-04-03T11:12:11;2.35;;;1.38;;
20336;SDS011;10326;53.660;10.200;2023-04-03T11:14:45;2.85;;;1.05;;
20336;SDS011;10326;53.660;10.200;2023-04-03T11:17:19;2.88;;;1.13;;
20336;SDS011;10326;53.660;10.200;2023-04-03T11:19:57;1.63;;;0.90;;
20336;SDS011;10326;53.660;10.200;2023-04-03T11:22:33;1.85;;;1.20;;
20336;SDS011;10326;53.660;10.200;2023-04-03T11:25:06;3.70;;;1.35;;
20336;SDS011;10326;53.660;10.200;2023-04-03T11:27:47;6.72;;;4.45;;
20336;SDS011;10326;53.660;10.200;2023-04-03T11:30:19;4.55;;;2.83;;
20336;SDS011;10326;53.660;10.200;2023-04-03T11:32:56;4.55;;;3.05;;
20336;SDS011;10326;53.660;10.200;2023-04-03T11:35:47;2.65;;;2.08;;
20336;SDS011;10326;53.660;10.200;2023-04-03T11:38:21;2.13;;;1.73;;
20336;SDS011;10326;53.660;10.200;2023-04-03T11:40:54;2.00;;;1.10;;
20336;SDS011;10326;53.660;10.200;2023-04-03T11:43:24;2.55;;;1.25;;
20336;SDS011;10326;53.660;10.200;2023-04-03T11:45:55;2.70;;;1.15;;
20336;SDS011;10326;53.660;10.200;2023-04-03T11:48:47;1.83;;;0.85;;
20336;SDS011;10326;53.660;10.200;2023-04-03T11:54:36;2.17;;;1.00;;
20336;SDS011;10326;53.660;10.200;2023-04-03T11:57:22;1.35;;;1.10;;
20336;SDS011;10326;53.660;10.200;2023-04-03T12:00:51;2.83;;;1.05;;
20336;SDS011;10326;53.660;10.200;2023-04-03T12:03:30;1.95;;;1.30;;
20336;SDS011;10326;53.660;10.200;2023-04-03T12:12:57;2.22;;;0.95;;
20336;SDS011;10326;53.660;10.200;2023-04-03T12:24:39;1.25;;;1.05;;
20336;SDS011;10326;53.660;10.200;2023-04-03T12:30:12;2.30;;;0.95;;
20336;SDS011;10326;53.660;10.200;2023-04-03T12:35:57;1.50;;;0.90;;
20336;SDS011;10326;53.660;10.200;2023-04-03T12:38:37;2.13;;;0.90;;
20336;SDS011;10326;53.660;10.200;2023-04-03T12:41:44;3.25;;;1.35;;
20336;SDS011;10326;53.660;10.200;2023-04-03T12:44:25;1.45;;;1.10;;
20336;SDS011;10326;53.660;10.200;2023-04-03T12:47:13;2.67;;;1.15;;
20336;SDS011;10326;53.660;10.200;2023-04-03T12:52:51;1.85;;;1.00;;
20336;SDS011;10326;53.660;10.200;2023-04-03T12:55:24;1.30;;;1.20;;
20336;SDS011;10326;53.660;10.200;2023-04-03T12:57:51;2.33;;;1.20;;
20336;SDS011;10326;53.660;10.200;2023-04-03T13:00:28;1.98;;;1.00;;
20336;SDS011;10326;53.660;10.200;2023-04-03T13:02:59;3.67;;;1.30;;
20336;SDS011;10326;53.660;10.200;2023-04-03T13:05:31;1.65;;;1.10;;
20336;SDS011;10326;53.660;10.200;2023-04-03T13:07:59;2.35;;;1.10;;
20336;SDS011;10326;53.660;10.200;2023-04-03T13:10:30;2.20;;;0.80;;
20336;SDS011;10326;53.660;10.200;2023-04-03T13:13:06;0.93;;;0.73;;
20336;SDS011;10326;53.660;10.200;2023-04-03T13:15:42;1.65;;;1.02;;
20336;SDS011;10326;53.660;10.200;2023-04-03T13:18:21;1.40;;;0.90;;
20336;SDS011;10326;53.660;10.200;2023-04-03T13:20:57;2.90;;;1.02;;
20336;SDS011;10326;53.660;10.200;2023-04-03T13:23:29;2.45;;;0.88;;
20336;SDS011;10326;53.660;10.200;2023-04-03T13:25:58;2.72;;;0.80;;
20336;SDS011;10326;53.660;10.200;2023-04-03T13:28:29;1.98;;;1.00;;
20336;SDS011;10326;53.660;10.200;2023-04-03T13:31:03;1.98;;;1.05;;
20336;SDS011;10326;53.660;10.200;2023-04-03T13:33:35;1.83;;;0.90;;
20336;SDS011;10326;53.660;10.200;2023-04-03T13:36:04;1.25;;;0.90;;
20336;SDS011;10326;53.660;10.200;2023-04-03T13:38:35;1.15;;;0.70;;
20336;SDS011;10326;53.660;10.200;2023-04-03T13:41:04;1.23;;;0.80;;
20336;SDS011;10326;53.660;10.200;2023-04-03T13:43:49;1.75;;;1.00;;
20336;SDS011;10326;53.660;10.200;2023-04-03T13:46:23;1.70;;;0.95;;
20336;SDS011;10326;53.660;10.200;2023-04-03T13:48:54;1.88;;;1.00;;
20336;SDS011;10326;53.660;10.200;2023-04-03T13:51:24;1.98;;;1.00;;
20336;SDS011;10326;53.660;10.200;2023-04-03T13:53:55;3.05;;;1.10;;
20336;SDS011;10326;53.660;10.200;2023-04-03T13:56:27;1.83;;;1.10;;
20336;SDS011;10326;53.660;10.200;2023-04-03T13:59:00;2.05;;;1.10;;
20336;SDS011;10326;53.660;10.200;2023-04-03T14:01:48;2.55;;;1.00;;
20336;SDS011;10326;53.660;10.200;2023-04-03T14:04:20;2.72;;;1.10;;
20336;SDS011;10326;53.660;10.200;2023-04-03T14:06:50;3.05;;;1.42;;
20336;SDS011;10326;53.660;10.200;2023-04-03T14:09:19;2.45;;;1.13;;
20336;SDS011;10326;53.660;10.200;2023-04-03T14:11:49;2.17;;;1.10;;
20336;SDS011;10326;53.660;10.200;2023-04-03T14:14:20;2.55;;;1.42;;
20336;SDS011;10326;53.660;10.200;2023-04-03T14:16:52;2.17;;;1.20;;
20336;SDS011;10326;53.660;10.200;2023-04-03T14:19:24;1.35;;;1.00;;
20336;SDS011;10326;53.660;10.200;2023-04-03T14:21:55;2.35;;;1.40;;
20336;SDS011;10326;53.660;10.200;2023-04-03T14:24:23;2.63;;;1.20;;
20336;SDS011;10326;53.660;10.200;2023-04-03T14:26:51;4.30;;;1.10;;
20336;SDS011;10326;53.660;10.200;2023-04-03T14:29:20;1.58;;;1.10;;
20336;SDS011;10326;53.660;10.200;2023-04-03T14:31:49;3.13;;;1.40;;
20336;SDS011;10326;53.660;10.200;2023-04-03T14:34:17;1.75;;;1.15;;
20336;SDS011;10326;53.660;10.200;2023-04-03T14:36:44;2.97;;;1.20;;
20336;SDS011;10326;53.660;10.200;2023-04-03T14:39:15;2.28;;;1.23;;
20336;SDS011;10326;53.660;10.200;2023-04-03T14:41:44;2.08;;;1.35;;
20336;SDS011;10326;53.660;10.200;2023-04-03T14:44:12;1.65;;;1.15;;
20336;SDS011;10326;53.660;10.200;2023-04-03T14:46:41;2.63;;;1.30;;
20336;SDS011;10326;53.660;10.200;2023-04-03T14:49:13;3.25;;;1.10;;
20336;SDS011;10326;53.660;10.200;2023-04-03T14:51:43;1.85;;;1.00;;
20336;SDS011;10326;53.660;10.200;2023-04-03T14:54:12;2.67;;;1.27;;
20336;SDS011;10326;53.660;10.200;2023-04-03T14:56:41;1.52;;;1.33;;
20336;SDS011;10326;53.660;10.200;2023-04-03T14:59:10;2.58;;;1.20;;
20336;SDS011;10326;53.660;10.200;2023-04-03T15:01:39;1.63;;;0.93;;
20336;SDS011;10326;53.660;10.200;2023-04-03T15:04:09;3.05;;;1.60;;
20336;SDS011;10326;53.660;10.200;2023-04-03T15:06:40;2.25;;;1.20;;
20336;SDS011;10326;53.660;10.200;2023-04-03T15:09:10;2.88;;;1.33;;
20336;SDS011;10326;53.660;10.200;2023-04-03T15:11:46;2.67;;;1.10;;
20336;SDS011;10326;53.660;10.200;2023-04-03T15:14:14;1.80;;;1.38;;
20336;SDS011;10326;53.660;10.200;2023-04-03T15:16:41;1.70;;;1.20;;
20336;SDS011;10326;53.660;10.200;2023-04-03T15:19:09;2.47;;;1.35;;
20336;SDS011;10326;53.660;10.200;2023-04-03T15:21:38;2.25;;;1.10;;
20336;SDS011;10326;53.660;10.200;2023-04-03T15:24:05;2.33;;;1.13;;
20336;SDS011;10326;53.660;10.200;2023-04-03T15:26:34;2.42;;;1.17;;
20336;SDS011;10326;53.660;10.200;2023-04-03T15:29:03;3.22;;;1.40;;
20336;SDS011;10326;53.660;10.200;2023-04-03T15:31:31;2.67;;;1.10;;
20336;SDS011;10326;53.660;10.200;2023-04-03T15:33:59;3.03;;;1.80;;
20336;SDS011;10326;53.660;10.200;2023-04-03T15:36:26;2.20;;;1.30;;
20336;SDS011;10326;53.660;10.200;2023-04-03T15:38:54;2.60;;;1.45;;
20336;SDS011;10326;53.660;10.200;2023-04-03T15:41:21;2.67;;;1.20;;
20336;SDS011;10326;53.660;10.200;2023-04-03T15:43:49;2.15;;;1.20;;
20336;SDS011;10326;53.660;10.200;2023-04-03T15:46:16;1.67;;;1.35;;